Time;durP1;ratioP1;P1;durP2;ratioP2;P2;SDS_P1;SDS_P2;PMS_P1;PMS_P2;Temp;Humidity;BMP_temperature;BMP_pressure;BME280_temperature;BME280_humidity;BME280_pressure;Samples;Min_cycle;Max_cycle;Signal;HPM_P1;HPM_P2
2021/11/28 00:00:05;;;;;;;;;;;;;;;3.75;86.23;98420.30;1732145;81;20475;-85
2021/11/28 00:02:29;;;;;;;;;;;;;;;3.77;86.15;98418.34;1740796;81;20550;-86
2021/11/28 00:04:54;;;;;;;;;;;;;;;3.80;85.76;98417.22;1745419;81;20088;-88
2021/11/28 00:07:33;;;;;;;;;;;;;;;3.78;85.79;98425.20;1726193;81;21793;-88
2021/11/28 00:15:01;;;;;;;;;;;;;;;3.76;85.74;98451.97;1748562;80;20202;-89
2021/11/28 00:17:20;;;;;;;;;;;;;;;3.78;85.58;98450.52;1737050;81;21006;-89
2021/11/28 00:19:45;;;;;;;;;;;;;;;3.78;85.45;98455.73;1736186;81;21161;-90
2021/11/28 00:22:14;;;;;;;;;;;;;;;3.71;85.51;98461.23;1737672;81;20130;-89
2021/11/28 00:24:39;;;;;;;;;;;;;;;3.63;85.77;98467.71;1742348;81;20249;-90
2021/11/28 00:27:05;;;;;;;;;;;;;;;3.51;86.31;98468.44;1744104;81;20181;-87
2021/11/28 00:29:34;;;;;;;;;;;;;;;3.47;86.58;98470.54;1722409;81;20583;-88
2021/11/28 00:32:02;;;;;;;;;;;;;;;3.29;87.35;98469.75;1739957;81;21097;-90
2021/11/28 00:34:29;;;;;;;;;;;;;;;3.38;87.38;98467.53;1738375;81;20156;-89
2021/11/28 00:37:00;;;;;;;;;;;;;;;3.39;87.53;98471.30;1743181;81;20982;-88
2021/11/28 00:39:29;;;;;;;;;;;;;;;3.46;87.53;98473.30;1768584;80;20155;-88
2021/11/28 00:41:54;;;;;;;;;;;;;;;3.46;87.75;98470.19;1765415;81;20249;-86
2021/11/28 00:44:20;;;;;;;;;;;;;;;3.47;87.88;98470.54;1756880;81;20478;-87
2021/11/28 00:46:48;;;;;;;;;;;;;;;3.38;88.39;98471.45;1759111;81;20639;-87
2021/11/28 00:49:21;;;;;;;;;;;;;;;3.45;88.41;98476.41;1757267;81;20124;-86
2021/11/28 00:51:50;;;;;;;;;;;;;;;3.42;88.73;98479.31;1758680;80;20112;-87
2021/11/28 00:54:15;;;;;;;;;;;;;;;3.47;88.89;98486.69;1782222;79;20530;-87
2021/11/28 00:56:43;;;;;;;;;;;;;;;3.38;89.21;98477.97;1751747;81;21235;-86
2021/11/28 00:59:09;;;;;;;;;;;;;;;3.37;89.64;98473.71;1764456;80;20144;-86
2021/11/28 01:01:34;;;;;;;;;;;;;;;3.42;89.91;98470.19;1752099;81;20513;-87
2021/11/28 01:04:03;;;;;;;;;;;;;;;3.50;89.80;98474.15;1747914;81;20126;-88
2021/11/28 01:06:29;;;;;;;;;;;;;;;3.43;89.81;98474.41;1731431;82;20154;-85
2021/11/28 01:08:54;;;;;;;;;;;;;;;3.38;90.05;98461.02;1758218;80;21037;-85
2021/11/28 01:11:23;;;;;;;;;;;;;;;3.37;90.44;98461.51;1760259;80;20315;-85
2021/11/28 01:13:52;;;;;;;;;;;;;;;3.44;90.60;98456.98;1765993;80;20281;-86
2021/11/28 01:16:19;;;;;;;;;;;;;;;3.46;90.55;98457.15;1760710;80;20190;-85
2021/11/28 01:18:47;;;;;;;;;;;;;;;3.48;90.87;98454.39;1755242;80;20222;-84
2021/11/28 01:21:14;;;;;;;;;;;;;;;3.51;90.84;98444.48;1755761;80;21319;-87
2021/11/28 01:23:45;;;;;;;;;;;;;;;3.66;90.53;98445.22;1756606;80;20158;-87
2021/11/28 01:26:11;;;;;;;;;;;;;;;3.64;90.82;98439.34;1759921;80;20162;-87
2021/11/28 01:28:38;;;;;;;;;;;;;;;3.59;90.73;98444.52;1757706;80;20169;-87
2021/11/28 01:31:05;;;;;;;;;;;;;;;3.62;90.94;98447.33;1755016;80;20249;-88
2021/11/28 01:33:32;;;;;;;;;;;;;;;3.58;91.16;98444.18;1734812;80;21065;-87
2021/11/28 01:35:58;;;;;;;;;;;;;;;3.61;91.40;98446.17;1760006;80;20128;-87
2021/11/28 01:38:26;;;;;;;;;;;;;;;3.58;91.95;98429.83;1727268;81;20187;-87
2021/11/28 01:40:53;;;;;;;;;;;;;;;3.64;91.45;98432.81;1730051;82;20342;-90
2021/11/28 01:43:21;;;;;;;;;;;;;;;3.74;91.58;98432.20;1730152;82;20160;-87
2021/11/28 01:45:50;;;;;;;;;;;;;;;3.69;91.15;98438.37;1746122;81;21093;-87
2021/11/28 01:48:16;;;;;;;;;;;;;;;3.55;92.20;98437.97;1731142;82;20148;-87
2021/11/28 01:50:45;;;;;;;;;;;;;;;3.69;91.53;98436.58;1703964;82;20654;-87
2021/11/28 01:53:24;;;;;;;;;;;;;;;3.80;91.33;98440.72;1720168;82;20247;-82
2021/11/28 01:55:49;;;;;;;;;;;;;;;3.90;90.97;98444.05;1725579;82;20630;-83
2021/11/28 01:58:15;;;;;;;;;;;;;;;3.85;90.69;98443.67;1723913;82;21016;-85
2021/11/28 02:00:46;;;;;;;;;;;;;;;3.82;90.38;98441.38;1713892;81;21285;-86
2021/11/28 02:03:12;;;;;;;;;;;;;;;3.78;90.68;98442.67;1710656;82;20895;-86
2021/11/28 02:05:41;;;;;;;;;;;;;;;3.87;90.81;98446.97;1726153;82;20625;-86
2021/11/28 02:08:13;;;;;;;;;;;;;;;3.78;90.63;98450.52;1711700;82;20169;-87
2021/11/28 02:10:40;;;;;;;;;;;;;;;3.84;90.79;98444.67;1713752;82;21087;-87
2021/11/28 02:13:06;;;;;;;;;;;;;;;3.90;90.60;98438.83;1747238;81;20131;-86
2021/11/28 02:15:35;;;;;;;;;;;;;;;3.93;90.51;98443.73;1727102;81;20194;-86
2021/11/28 02:18:02;;;;;;;;;;;;;;;3.97;90.41;98449.45;1725351;82;20536;-86
2021/11/28 02:20:31;;;;;;;;;;;;;;;4.06;90.36;98447.72;1735643;81;20202;-86
2021/11/28 02:22:57;;;;;;;;;;;;;;;4.00;90.12;98437.89;1706577;83;21918;-88
2021/11/28 02:25:25;;;;;;;;;;;;;;;3.98;90.44;98437.20;1724757;81;20872;-89
2021/11/28 02:27:53;;;;;;;;;;;;;;;4.06;90.56;98435.96;1725696;82;20160;-90
2021/11/28 02:30:20;;;;;;;;;;;;;;;4.09;90.22;98435.64;1707301;83;20201;-89
2021/11/28 02:32:49;;;;;;;;;;;;;;;4.14;89.80;98432.88;1746448;81;20187;-89
2021/11/28 02:35:16;;;;;;;;;;;;;;;4.19;89.67;98428.98;1703680;83;21207;-88
2021/11/28 02:37:44;;;;;;;;;;;;;;;4.19;89.19;98427.67;1729451;81;20685;-86
2021/11/28 02:40:16;;;;;;;;;;;;;;;4.18;89.01;98424.26;1746425;80;20484;-88
2021/11/28 02:42:47;;;;;;;;;;;;;;;4.24;89.04;98430.16;1758075;80;20156;-88
2021/11/28 02:45:13;;;;;;;;;;;;;;;4.26;88.81;98436.03;1761696;80;20181;-89
2021/11/28 02:47:39;;;;;;;;;;;;;;;4.27;88.53;98429.84;1756890;80;21146;-90
2021/11/28 02:50:05;;;;;;;;;;;;;;;4.23;88.59;98427.20;1751953;81;20235;-89
2021/11/28 02:52:31;;;;;;;;;;;;;;;4.31;88.53;98418.08;1759397;80;20990;-91
2021/11/28 02:54:57;;;;;;;;;;;;;;;4.33;88.44;98419.72;1757521;80;20110;-90
2021/11/28 02:57:22;;;;;;;;;;;;;;;4.38;88.35;98420.05;1759965;80;20172;-87
2021/11/28 02:59:48;;;;;;;;;;;;;;;4.38;88.20;98425.28;1756138;80;21121;-87
2021/11/28 03:02:14;;;;;;;;;;;;;;;4.36;87.91;98433.78;1762569;81;20120;-87
2021/11/28 03:04:40;;;;;;;;;;;;;;;4.33;88.28;98428.37;1752592;81;21512;-87
2021/11/28 03:07:06;;;;;;;;;;;;;;;4.24;88.40;98421.02;1754939;81;20196;-87
2021/11/28 03:09:31;;;;;;;;;;;;;;;4.27;88.60;98422.00;1750465;80;20607;-86
2021/11/28 03:11:57;;;;;;;;;;;;;;;4.23;88.81;98424.59;1765785;79;21082;-87
2021/11/28 03:14:24;;;;;;;;;;;;;;;4.29;88.87;98430.48;1761532;79;20137;-86
2021/11/28 03:16:51;;;;;;;;;;;;;;;4.29;88.77;98437.02;1775072;80;20151;-87
2021/11/28 03:19:19;;;;;;;;;;;;;;;4.28;88.71;98439.30;1770690;80;20159;-85
2021/11/28 03:21:49;;;;;;;;;;;;;;;4.28;89.01;98435.38;1776421;80;20181;-86
2021/11/28 03:24:15;;;;;;;;;;;;;;;4.18;88.82;98438.63;1774041;79;21124;-88
2021/11/28 03:26:41;;;;;;;;;;;;;;;4.10;89.33;98445.94;1777331;79;20142;-86
2021/11/28 03:29:09;;;;;;;;;;;;;;;4.19;89.63;98445.47;1771238;79;20227;-86
2021/11/28 03:31:38;;;;;;;;;;;;;;;4.24;89.56;98447.14;1747616;80;20250;-86
2021/11/28 03:34:03;;;;;;;;;;;;;;;4.33;89.58;98443.23;1764670;80;20502;-86
2021/11/28 03:36:32;;;;;;;;;;;;;;;4.41;89.11;98451.09;1768828;80;21078;-86
2021/11/28 03:39:03;;;;;;;;;;;;;;;4.42;88.80;98450.94;1766220;79;20181;-86
2021/11/28 03:41:28;;;;;;;;;;;;;;;4.45;88.54;98457.66;1768484;80;20124;-86
2021/11/28 03:43:56;;;;;;;;;;;;;;;4.52;88.35;98463.86;1764454;79;20130;-86
2021/11/28 03:46:28;;;;;;;;;;;;;;;4.54;88.17;98460.63;1775548;80;20155;-84
2021/11/28 03:48:56;;;;;;;;;;;;;;;4.58;88.09;98459.31;1772340;80;20829;-87
2021/11/28 03:51:22;;;;;;;;;;;;;;;4.60;87.81;98460.45;1762140;80;20149;-85
2021/11/28 03:53:49;;;;;;;;;;;;;;;4.65;87.73;98453.78;1765494;79;20138;-86
2021/11/28 03:56:18;;;;;;;;;;;;;;;4.67;87.57;98459.66;1759706;80;20129;-85
2021/11/28 03:58:47;;;;;;;;;;;;;;;4.71;87.52;98461.95;1764090;79;20143;-86
2021/11/28 04:01:15;;;;;;;;;;;;;;;4.68;87.34;98454.77;1771082;80;21356;-84
2021/11/28 04:03:42;;;;;;;;;;;;;;;4.67;87.26;98457.05;1774440;80;20460;-85
2021/11/28 04:06:08;;;;;;;;;;;;;;;4.71;87.20;98454.11;1761892;80;20175;-85
2021/11/28 04:08:34;;;;;;;;;;;;;;;4.74;87.13;98460.33;1770738;80;20238;-85
2021/11/28 04:11:02;;;;;;;;;;;;;;;4.78;87.07;98459.04;1739328;79;20171;-85
2021/11/28 04:13:27;;;;;;;;;;;;;;;4.79;87.04;98451.03;1766804;79;20425;-85
2021/11/28 04:15:53;;;;;;;;;;;;;;;4.68;87.07;98456.08;1761405;79;20136;-85
2021/11/28 04:18:18;;;;;;;;;;;;;;;4.68;87.14;98449.54;1768016;80;20140;-84
2021/11/28 04:20:46;;;;;;;;;;;;;;;4.67;87.21;98445.78;1766768;79;20208;-84
2021/11/28 04:23:13;;;;;;;;;;;;;;;4.66;87.30;98433.20;1766631;79;20172;-85
2021/11/28 04:25:40;;;;;;;;;;;;;;;4.66;87.30;98427.97;1769912;79;21169;-86
2021/11/28 04:28:05;;;;;;;;;;;;;;;4.70;87.12;98434.19;1763564;80;20298;-84
2021/11/28 04:30:33;;;;;;;;;;;;;;;4.61;87.24;98430.73;1767635;79;20288;-87
2021/11/28 04:32:59;;;;;;;;;;;;;;;4.58;87.33;98431.86;1765588;79;20570;-84
2021/11/28 04:35:24;;;;;;;;;;;;;;;4.61;87.30;98436.77;1767081;80;20860;-85
2021/11/28 04:37:50;;;;;;;;;;;;;;;4.62;87.17;98434.49;1765196;80;22434;-84
2021/11/28 04:40:18;;;;;;;;;;;;;;;4.62;87.19;98437.61;1740390;81;20211;-85
2021/11/28 04:42:45;;;;;;;;;;;;;;;4.55;87.46;98434.80;1750187;80;20663;-84
2021/11/28 04:45:14;;;;;;;;;;;;;;;4.37;87.91;98436.73;1774371;80;20144;-85
2021/11/28 04:47:40;;;;;;;;;;;;;;;4.26;88.45;98438.64;1756004;80;20204;-85
2021/11/28 04:50:09;;;;;;;;;;;;;;;4.17;89.29;98440.09;1761216;80;21080;-85
2021/11/28 04:52:34;;;;;;;;;;;;;;;3.99;90.34;98436.24;1762880;81;20128;-85
2021/11/28 04:55:00;;;;;;;;;;;;;;;3.79;91.87;98429.94;1761852;81;20134;-85
2021/11/28 04:57:25;;;;;;;;;;;;;;;3.74;92.26;98434.34;1710543;82;20208;-85
2021/11/28 04:59:51;;;;;;;;;;;;;;;3.73;92.64;98434.00;1755276;81;20532;-85
2021/11/28 05:02:18;;;;;;;;;;;;;;;3.87;92.15;98432.61;1758093;81;21126;-85
2021/11/28 05:04:44;;;;;;;;;;;;;;;3.93;92.00;98433.30;1731197;81;20585;-84
2021/11/28 05:07:09;;;;;;;;;;;;;;;4.05;91.52;98443.45;1753297;80;20582;-85
2021/11/28 05:09:35;;;;;;;;;;;;;;;4.12;91.09;98438.75;1752554;81;20163;-85
2021/11/28 05:12:03;;;;;;;;;;;;;;;4.10;90.84;98438.57;1761530;79;20176;-85
2021/11/28 05:14:28;;;;;;;;;;;;;;;4.13;90.78;98448.70;1752752;81;21167;-84
2021/11/28 05:16:54;;;;;;;;;;;;;;;4.17;90.52;98444.81;1748479;80;20176;-84
2021/11/28 05:19:20;;;;;;;;;;;;;;;4.20;90.33;98451.03;1758467;81;20265;-84
2021/11/28 05:21:47;;;;;;;;;;;;;;;4.23;89.97;98462.48;1749677;80;20468;-84
2021/11/28 05:24:12;;;;;;;;;;;;;;;4.22;89.92;98459.52;1733172;81;20174;-84
2021/11/28 05:26:38;;;;;;;;;;;;;;;4.25;89.72;98462.32;1752119;81;22254;-84
2021/11/28 05:29:04;;;;;;;;;;;;;;;4.24;89.59;98462.81;1758783;80;20184;-84
2021/11/28 05:31:29;;;;;;;;;;;;;;;4.26;89.33;98461.35;1750927;81;20132;-84
2021/11/28 05:33:55;;;;;;;;;;;;;;;4.28;89.36;98462.81;1759479;81;20472;-85
2021/11/28 05:36:23;;;;;;;;;;;;;;;4.27;89.18;98461.66;1730549;81;20157;-85
2021/11/28 05:38:49;;;;;;;;;;;;;;;4.29;89.28;98455.81;1750577;80;21081;-86
2021/11/28 05:41:15;;;;;;;;;;;;;;;4.30;89.27;98461.34;1705807;82;20144;-89
2021/11/28 05:43:43;;;;;;;;;;;;;;;4.30;89.24;98454.34;1723642;82;20149;-86
2021/11/28 05:46:10;;;;;;;;;;;;;;;4.30;89.30;98455.66;1724044;82;20162;-87
2021/11/28 05:48:37;;;;;;;;;;;;;;;4.32;89.18;98452.89;1723318;82;20639;-87
2021/11/28 05:51:05;;;;;;;;;;;;;;;4.36;89.13;98453.37;1721926;82;21162;-88
2021/11/28 05:53:32;;;;;;;;;;;;;;;4.38;89.05;98451.41;1721383;82;21038;-89
2021/11/28 05:55:58;;;;;;;;;;;;;;;4.36;88.90;98448.15;1725696;82;20167;-87
2021/11/28 05:58:23;;;;;;;;;;;;;;;4.36;89.05;98450.27;1722195;81;20528;-87
2021/11/28 06:00:53;;;;;;;;;;;;;;;4.36;89.05;98442.92;1721074;82;20146;-86
2021/11/28 06:03:20;;;;;;;;;;;;;;;4.37;89.03;98445.87;1719078;82;21181;-88
2021/11/28 06:05:47;;;;;;;;;;;;;;;4.34;89.12;98442.27;1721240;81;20140;-88
2021/11/28 06:08:13;;;;;;;;;;;;;;;4.38;89.01;98443.57;1724919;82;20134;-87
2021/11/28 06:10:38;;;;;;;;;;;;;;;4.40;88.92;98442.95;1701711;82;20112;-85
2021/11/28 06:13:06;;;;;;;;;;;;;;;4.42;88.81;98437.87;1722893;82;20745;-86
2021/11/28 06:15:32;;;;;;;;;;;;;;;4.43;88.79;98436.09;1725157;82;21106;-86
2021/11/28 06:17:57;;;;;;;;;;;;;;;4.41;88.90;98436.25;1725557;82;20156;-85
2021/11/28 06:20:23;;;;;;;;;;;;;;;4.30;89.26;98431.30;1724234;82;20179;-87
2021/11/28 06:22:52;;;;;;;;;;;;;;;4.35;89.18;98436.89;1720316;82;20559;-86
2021/11/28 06:25:18;;;;;;;;;;;;;;;4.32;89.30;98441.13;1724280;81;20212;-86
2021/11/28 06:27:45;;;;;;;;;;;;;;;4.29;89.64;98439.64;1721206;82;21331;-87
2021/11/28 06:30:12;;;;;;;;;;;;;;;4.32;89.54;98445.05;1720673;82;20127;-86
2021/11/28 06:32:38;;;;;;;;;;;;;;;4.20;90.07;98454.95;1725504;81;20183;-87
2021/11/28 06:35:05;;;;;;;;;;;;;;;4.18;90.40;98458.22;1722611;82;20167;-86
2021/11/28 06:37:33;;;;;;;;;;;;;;;4.16;90.64;98453.62;1721386;81;20199;-84
2021/11/28 06:40:02;;;;;;;;;;;;;;;4.19;90.51;98459.02;1742613;80;21326;-86
2021/11/28 06:42:29;;;;;;;;;;;;;;;4.15;90.61;98459.84;1746407;80;20534;-89
2021/11/28 06:44:54;;;;;;;;;;;;;;;4.01;91.13;98458.62;1722437;80;20166;-86
2021/11/28 06:47:20;;;;;;;;;;;;;;;3.92;91.75;98457.76;1728625;80;20484;-86
2021/11/28 06:49:50;;;;;;;;;;;;;;;3.91;91.91;98461.33;1734468;80;20502;-86
2021/11/28 06:52:17;;;;;;;;;;;;;;;3.91;92.01;98470.47;1734070;80;21065;-87
2021/11/28 06:54:46;;;;;;;;;;;;;;;3.86;92.21;98467.52;1731184;80;20156;-87
2021/11/28 06:57:12;;;;;;;;;;;;;;;3.99;92.09;98471.50;1736095;80;20826;-86
2021/11/28 06:59:37;;;;;;;;;;;;;;;4.09;91.57;98476.14;1743833;80;20116;-87
2021/11/28 07:02:03;;;;;;;;;;;;;;;4.17;91.18;98480.08;1720484;80;20198;-87
2021/11/28 07:04:29;;;;;;;;;;;;;;;4.15;90.96;98480.73;1732242;80;22157;-85
2021/11/28 07:06:55;;;;;;;;;;;;;;;4.11;90.84;98487.23;1721944;80;20182;-86
2021/11/28 07:09:22;;;;;;;;;;;;;;;4.19;90.77;98487.27;1728546;80;20245;-89
2021/11/28 07:11:50;;;;;;;;;;;;;;;4.20;90.61;98486.30;1728510;81;20165;-87
2021/11/28 07:14:17;;;;;;;;;;;;;;;4.20;90.38;98484.19;1751662;80;20699;-87
2021/11/28 07:16:42;;;;;;;;;;;;;;;4.13;90.65;98480.05;1770069;80;21081;-87
2021/11/28 07:19:08;;;;;;;;;;;;;;;4.04;91.28;98487.52;1751329;81;20155;-87
2021/11/28 07:21:34;;;;;;;;;;;;;;;4.09;91.47;98480.05;1728561;81;20314;-86
2021/11/28 07:24:01;;;;;;;;;;;;;;;4.09;91.51;98476.14;1750499;79;21404;-88
2021/11/28 07:26:28;;;;;;;;;;;;;;;4.06;91.58;98479.06;1744272;81;20198;-86
2021/11/28 07:28:57;;;;;;;;;;;;;;;4.17;91.31;98477.47;1739462;81;21066;-91
2021/11/28 07:31:23;;;;;;;;;;;;;;;4.21;91.23;98476.66;1737034;81;20198;-87
2021/11/28 07:33:54;;;;;;;;;;;;;;;4.19;91.35;98478.13;1739738;81;20201;-87
2021/11/28 07:36:25;;;;;;;;;;;;;;;4.18;91.22;98477.81;1731601;81;20146;-88
2021/11/28 07:38:51;;;;;;;;;;;;;;;4.08;91.53;98473.18;1738997;81;20216;-90
2021/11/28 07:41:18;;;;;;;;;;;;;;;3.97;92.45;98466.93;1744475;80;22608;-89
2021/11/28 07:43:43;;;;;;;;;;;;;;;3.88;93.05;98469.48;1747474;80;20145;-87
2021/11/28 07:46:09;;;;;;;;;;;;;;;3.70;93.90;98466.95;1747075;80;20173;-87
2021/11/28 07:48:34;;;;;;;;;;;;;;;3.66;94.26;98463.48;1738182;81;20133;-88
2021/11/28 07:51:00;;;;;;;;;;;;;;;3.62;94.64;98466.06;1742305;80;20150;-84
2021/11/28 07:53:26;;;;;;;;;;;;;;;3.67;94.62;98462.52;1739091;81;21087;-85
2021/11/28 07:55:52;;;;;;;;;;;;;;;3.53;95.15;98473.84;1737263;81;20122;-87
2021/11/28 07:58:19;;;;;;;;;;;;;;;3.54;95.22;98473.34;1740130;80;20143;-87
2021/11/28 08:00:48;;;;;;;;;;;;;;;3.56;95.33;98470.93;1707057;81;20138;-85
2021/11/28 08:03:18;;;;;;;;;;;;;;;3.50;95.92;98470.23;1740532;81;20493;-89
2021/11/28 08:05:46;;;;;;;;;;;;;;;3.48;95.99;98471.34;1735472;81;20198;-87
2021/11/28 08:08:12;;;;;;;;;;;;;;;3.50;96.41;98475.45;1742153;81;20177;-86
2021/11/28 08:10:40;;;;;;;;;;;;;;;3.63;96.19;98471.63;1737856;81;20221;-90
2021/11/28 08:13:09;;;;;;;;;;;;;;;3.57;96.17;98471.27;1733423;81;20169;-85
2021/11/28 08:15:36;;;;;;;;;;;;;;;3.46;97.21;98472.80;1742630;81;20538;-87
2021/11/28 08:18:02;;;;;;;;;;;;;;;3.50;97.39;98473.34;1741741;81;21281;-84
2021/11/28 08:20:32;;;;;;;;;;;;;;;3.45;97.72;98475.56;1722428;81;20132;-87
2021/11/28 08:23:00;;;;;;;;;;;;;;;3.47;97.66;98475.76;1738086;80;20502;-89
2021/11/28 08:25:26;;;;;;;;;;;;;;;3.49;97.79;98480.33;1741003;80;21037;-86
2021/11/28 08:27:53;;;;;;;;;;;;;;;3.50;97.69;98478.56;1718125;80;20171;-86
2021/11/28 08:30:19;;;;;;;;;;;;;;;3.50;97.71;98480.67;1716398;81;20790;-87
2021/11/28 08:32:46;;;;;;;;;;;;;;;3.52;97.91;98483.94;1745627;81;20798;-86
2021/11/28 08:35:16;;;;;;;;;;;;;;;3.55;97.79;98484.94;1739203;81;20197;-86
2021/11/28 08:37:47;;;;;;;;;;;;;;;3.59;97.56;98488.89;1746552;80;20220;-87
2021/11/28 08:40:15;;;;;;;;;;;;;;;3.67;97.49;98492.55;1730804;80;20985;-85
2021/11/28 08:42:43;;;;;;;;;;;;;;;3.76;97.38;98492.93;1749802;80;21181;-87
2021/11/28 08:45:11;;;;;;;;;;;;;;;3.83;97.11;98490.52;1753582;81;20142;-84
2021/11/28 08:47:38;;;;;;;;;;;;;;;3.88;97.00;98493.48;1757648;81;20144;-87
2021/11/28 08:50:05;;;;;;;;;;;;;;;3.95;96.74;98488.78;1755436;79;20122;-86
2021/11/28 08:52:34;;;;;;;;;;;;;;;4.03;96.35;98480.67;1750637;81;20200;-86
2021/11/28 08:54:59;;;;;;;;;;;;;;;4.04;95.84;98486.21;1756152;81;22412;-84
2021/11/28 08:57:25;;;;;;;;;;;;;;;4.12;95.82;98491.50;1754887;81;20143;-86
2021/11/28 08:59:50;;;;;;;;;;;;;;;4.23;95.36;98491.72;1749372;80;20429;-88
2021/11/28 09:02:17;;;;;;;;;;;;;;;4.33;95.14;98490.27;1747074;80;20157;-86
2021/11/28 09:04:44;;;;;;;;;;;;;;;4.39;94.49;98488.34;1752705;81;20206;-86
2021/11/28 09:07:13;;;;;;;;;;;;;;;4.35;93.85;98493.54;1726383;81;21179;-84
2021/11/28 09:09:40;;;;;;;;;;;;;;;4.34;93.69;98493.23;1750033;81;20178;-84
2021/11/28 09:12:06;;;;;;;;;;;;;;;4.40;93.75;98491.30;1749563;81;20179;-84
2021/11/28 09:14:34;;;;;;;;;;;;;;;4.48;93.49;98488.70;1724589;81;20162;-86
2021/11/28 09:17:03;;;;;;;;;;;;;;;4.56;93.34;98480.88;1752395;81;20212;-85
2021/11/28 09:19:48;;;;;;;;;;;;;;;4.61;92.61;98483.83;1752327;81;20184;-86
2021/11/28 09:22:20;;;;;;;;;;;;;;;4.63;92.35;98482.36;1752442;80;20225;-88
2021/11/28 09:24:40;;;;;;;;;;;;;;;4.65;91.65;98485.16;1747060;81;20185;-88
2021/11/28 09:27:08;;;;;;;;;;;;;;;4.64;91.36;98474.36;1735165;81;20126;-87
2021/11/28 09:29:35;;;;;;;;;;;;;;;4.74;91.34;98483.39;1744464;81;20177;-87
2021/11/28 09:32:02;;;;;;;;;;;;;;;4.80;91.16;98473.59;1772059;80;21140;-89
2021/11/28 09:34:30;;;;;;;;;;;;;;;4.84;90.72;98475.39;1774471;80;20200;-86
2021/11/28 09:36:57;;;;;;;;;;;;;;;4.80;90.53;98466.22;1774763;80;20161;-86
2021/11/28 09:39:24;;;;;;;;;;;;;;;4.82;90.93;98464.28;1730896;80;20225;-89
2021/11/28 09:41:53;;;;;;;;;;;;;;;4.84;90.79;98458.39;1754211;80;20191;-92
2021/11/28 09:44:21;;;;;;;;;;;;;;;4.89;90.61;98452.18;1748137;81;21113;-90
2021/11/28 09:46:52;;;;;;;;;;;;;;;4.96;90.52;98455.80;1744954;80;21195;-90
2021/11/28 09:49:21;;;;;;;;;;;;;;;5.02;90.43;98455.15;1715844;81;20126;-91
2021/11/28 09:51:49;;;;;;;;;;;;;;;5.09;90.10;98449.27;1752060;81;20173;-89
2021/11/28 09:54:14;;;;;;;;;;;;;;;5.13;89.96;98455.82;1747978;81;20188;-92
2021/11/28 09:56:40;;;;;;;;;;;;;;;5.10;89.97;98460.87;1750904;81;21075;-88
2021/11/28 09:59:08;;;;;;;;;;;;;;;5.10;90.30;98460.07;1742462;81;20236;-90
2021/11/28 10:01:43;;;;;;;;;;;;;;;5.11;90.19;98454.67;1747392;81;20124;-91
2021/11/28 10:04:06;;;;;;;;;;;;;;;5.15;90.47;98459.08;1747080;80;21044;-87
2021/11/28 10:06:36;;;;;;;;;;;;;;;5.24;90.67;98452.87;1745817;81;20244;-91
2021/11/28 10:09:06;;;;;;;;;;;;;;;5.25;90.63;98454.52;1747420;81;21834;-93
2021/11/28 10:11:43;;;;;;;;;;;;;;;5.33;90.32;98447.95;1745068;81;20234;-90
2021/11/28 10:14:11;;;;;;;;;;;;;;;5.34;90.31;98440.41;1751331;81;20129;-90
2021/11/28 10:16:37;;;;;;;;;;;;;;;5.44;90.23;98434.19;1748964;81;20426;-92
2021/11/28 10:19:03;;;;;;;;;;;;;;;5.54;90.15;98426.98;1750196;80;20170;-90
2021/11/28 10:21:31;;;;;;;;;;;;;;;5.66;90.01;98424.84;1751289;81;21063;-91
2021/11/28 10:24:13;;;;;;;;;;;;;;;5.72;89.87;98427.60;1749193;80;20178;-95
2021/11/28 10:26:59;;;;;;;;;;;;;;;5.78;89.94;98430.53;1747543;80;20157;-90
2021/11/28 10:29:32;;;;;;;;;;;;;;;5.87;89.35;98432.98;1692587;81;38725;-87
2021/11/28 10:31:59;;;;;;;;;;;;;;;5.88;88.91;98433.28;1719909;80;20234;-90
2021/11/28 10:34:30;;;;;;;;;;;;;;;5.98;88.58;98423.97;1751600;80;21146;-94
2021/11/28 10:37:14;;;;;;;;;;;;;;;6.08;88.87;98429.81;1756207;81;20148;-89
2021/11/28 10:39:49;;;;;;;;;;;;;;;6.22;88.93;98432.72;1750316;81;20137;-92
2021/11/28 10:42:23;;;;;;;;;;;;;;;6.28;88.12;98415.00;1755199;81;20997;-93
2021/11/28 10:45:07;;;;;;;;;;;;;;;6.23;87.78;98421.22;1753199;81;20173;-93
2021/11/28 10:47:34;;;;;;;;;;;;;;;6.23;87.90;98421.22;1750344;80;20142;-90
2021/11/28 10:50:11;;;;;;;;;;;;;;;6.13;87.74;98425.88;1750420;81;20138;-88
2021/11/28 10:52:39;;;;;;;;;;;;;;;6.18;88.06;98420.92;1753947;80;20152;-88
2021/11/28 10:55:13;;;;;;;;;;;;;;;6.21;87.51;98413.53;1752896;80;20222;-90
2021/11/28 10:57:39;;;;;;;;;;;;;;;6.24;86.86;98421.05;1721380;81;20113;-90
2021/11/28 11:00:07;;;;;;;;;;;;;;;6.24;87.10;98412.38;1751393;81;22020;-88
2021/11/28 11:02:38;;;;;;;;;;;;;;;6.34;86.71;98420.86;1724112;80;20147;-91
2021/11/28 11:05:07;;;;;;;;;;;;;;;6.43;86.73;98416.37;1696806;81;20120;-90
2021/11/28 11:07:50;;;;;;;;;;;;;;;6.47;86.28;98417.17;1728817;81;20572;-91
2021/11/28 11:10:25;;;;;;;;;;;;;;;6.55;85.58;98413.69;1752596;81;20541;-90
2021/11/28 11:12:53;;;;;;;;;;;;;;;6.63;84.90;98408.88;1751073;81;21164;-89
2021/11/28 11:15:34;;;;;;;;;;;;;;;6.62;84.17;98409.39;1725730;81;20795;-87
2021/11/28 11:18:03;;;;;;;;;;;;;;;6.63;83.88;98404.95;1752562;81;20097;-92
2021/11/28 11:20:32;;;;;;;;;;;;;;;6.69;83.93;98396.39;1757778;81;20395;-89
2021/11/28 11:23:00;;;;;;;;;;;;;;;6.77;83.41;98397.63;1753528;81;20069;-91
2021/11/28 11:25:35;;;;;;;;;;;;;;;6.89;83.02;98388.06;1755678;81;21968;-88
2021/11/28 11:28:08;;;;;;;;;;;;;;;6.88;81.14;98383.80;1754072;81;20158;-88
2021/11/28 11:30:34;;;;;;;;;;;;;;;6.86;80.97;98379.23;1751764;80;20085;-90
2021/11/28 11:33:02;;;;;;;;;;;;;;;6.97;81.74;98373.55;1755728;80;20120;-89
2021/11/28 11:35:30;;;;;;;;;;;;;;;6.96;81.11;98377.16;1754124;81;20165;-91
2021/11/28 11:38:07;;;;;;;;;;;;;;;7.02;80.47;98377.77;1754727;81;22004;-87
2021/11/28 11:40:39;;;;;;;;;;;;;;;7.08;80.29;98378.37;1752138;81;20160;-92
2021/11/28 11:43:05;;;;;;;;;;;;;;;7.07;79.87;98376.76;1754467;80;20093;-91
2021/11/28 11:45:35;;;;;;;;;;;;;;;7.12;79.60;98370.47;1758356;80;20223;-84
2021/11/28 11:48:05;;;;;;;;;;;;;;;7.12;79.76;98375.72;1750863;81;20541;-88
2021/11/28 11:50:32;;;;;;;;;;;;;;;7.31;79.85;98367.02;1753478;81;21064;-88
2021/11/28 11:53:01;;;;;;;;;;;;;;;7.35;78.99;98373.55;1751535;81;20197;-89
2021/11/28 11:55:29;;;;;;;;;;;;;;;7.43;78.91;98370.03;1758135;81;20156;-87
2021/11/28 11:58:32;;;;;;;;;;;;;;;7.55;78.70;98366.77;1759477;81;20119;-88
2021/11/28 12:01:15;;;;;;;;;;;;;;;7.60;78.50;98365.39;1760617;81;20160;-88
2021/11/28 12:03:48;;;;;;;;;;;;;;;7.63;78.23;98362.41;1758848;80;20140;-88
2021/11/28 12:06:16;;;;;;;;;;;;;;;7.71;78.37;98363.14;1756440;80;20173;-93
2021/11/28 12:08:52;;;;;;;;;;;;;;;7.61;77.88;98361.78;1760526;80;20174;-93
2021/11/28 12:11:22;;;;;;;;;;;;;;;7.46;77.76;98358.66;1756377;81;20152;-89
2021/11/28 12:13:52;;;;;;;;;;;;;;;7.49;78.26;98356.98;1759846;81;20210;-87
2021/11/28 12:16:20;;;;;;;;;;;;;;;7.44;78.40;98348.84;1751903;81;20423;-85
2021/11/28 12:18:54;;;;;;;;;;;;;;;7.46;78.83;98348.16;1734396;81;20878;-90
2021/11/28 12:21:38;;;;;;;;;;;;;;;7.55;78.69;98358.05;1759155;80;20167;-92
2021/11/28 12:24:19;;;;;;;;;;;;;;;7.63;78.11;98361.09;1755659;81;20294;-93
2021/11/28 12:26:46;;;;;;;;;;;;;;;7.64;78.03;98359.59;1755836;80;20404;-86
2021/11/28 12:29:18;;;;;;;;;;;;;;;7.59;78.04;98354.59;1756302;80;21089;-88
2021/11/28 12:31:47;;;;;;;;;;;;;;;7.45;78.14;98362.27;1755078;81;20149;-89
2021/11/28 12:34:15;;;;;;;;;;;;;;;7.57;78.58;98357.40;1757339;81;20103;-87
2021/11/28 12:36:55;;;;;;;;;;;;;;;7.54;78.57;98352.00;1759978;77;20197;-87
2021/11/28 12:39:25;;;;;;;;;;;;;;;7.51;78.86;98340.54;1752790;77;20159;-86
2021/11/28 12:42:19;;;;;;;;;;;;;;;7.44;79.11;98337.02;1727535;81;21166;-86
2021/11/28 12:44:53;;;;;;;;;;;;;;;7.49;79.38;98328.60;1708272;83;20121;-88
2021/11/28 12:47:23;;;;;;;;;;;;;;;7.40;79.10;98329.18;1715145;83;20535;-83
2021/11/28 12:49:53;;;;;;;;;;;;;;;7.36;79.45;98315.61;1708966;83;20154;-89
2021/11/28 12:52:34;;;;;;;;;;;;;;;7.30;79.78;98312.87;1711330;83;20182;-85
2021/11/28 12:55:12;;;;;;;;;;;;;;;7.27;80.28;98311.91;1711871;83;21899;-85
2021/11/28 12:57:59;;;;;;;;;;;;;;;7.17;80.34;98316.13;1713816;82;20142;-89
2021/11/28 13:00:43;;;;;;;;;;;;;;;7.12;80.76;98311.41;1681891;84;20213;-86
2021/11/28 13:03:15;;;;;;;;;;;;;;;7.13;81.29;98312.22;1673067;84;20224;-88
2021/11/28 13:05:46;;;;;;;;;;;;;;;7.14;81.37;98312.03;1674646;83;20208;-86
2021/11/28 13:08:15;;;;;;;;;;;;;;;7.11;81.37;98309.77;1691748;83;22022;-85